Portada
METAR-TAF:

METAR-TAF

Aeroports :

Natal, Rio Grande do Norte, Brasil

latitud: 05-46-05S, longitud: 035-22-34W, altitud: 88 m

Observació

L'informe es va fer fa 27 minuts, a les 23:00 UTC
Vent 4 kt del Sud
Temperatura 25°C
Humitat 83%
Pressió 1015 hPa
Visibilitat 10 km o més
Escasses núvols a una alçada de 2100 ft
Cel ennuvolat a una alçada de 10000 ft

METAR: SBSG 242300Z 19004KT 9999 FEW021 BKN100 25/22 Q1015

Hora: 20:27 (23:27 UTC)

Pronòstic

L'informe es va fer fa 7 hores i 27 minuts, a les 16:00 UTC
Pronòstic vàlid del 24 a les 18 UTC al 25 a les 18 UTC
Vent 10 kt del Sud
Visibilitat: 8000 m
Cel ennuvolat a una alçada de 1800 ft
Evolucionant progressivament
l' 24 a les 22 UTC al 24 a les 23 UTC
Vent 5 kt del Sud-Oest
Evolucionant progressivament
l' 25 a les 11 UTC al 25 a les 12 UTC
Vent 11 kt del Sud

TAF: SBSG 241600Z 2418/2518 18010KT 8000 BKN018 TN23/2507Z TX30/2515Z BECMG 2422/2423 22005KT BECMG 2511/2512 18011KT RMK PCN

Observacions i pronòstics meteorològics de més de 4000 aeroports (METAR i TAF).

Les estacions disponibles són els punts grocs i vermells al mapa.

Posi el ratolí al punt desitjat per veure el nom de l'estació.

Feu clic per veure les observacions i els pronòstics meteorològics.

Per canviar el mapa: feu clic els botons verds amb una creu de color negre per apropar; al botó verd amb un guió per allunyar la imatge; o en les fletxes verdes per a mapes adjacents.


METAR-TAF: